sensor_id;sensor_type;location;lat;lon;timestamp;P1;durP1;ratioP1;P2;durP2;ratioP2
239;SDS011;104;53.590;10.004;2023-10-09T04:58:43;19.80;;;10.60;;
239;SDS011;104;53.590;10.004;2023-10-09T05:01:13;21.33;;;10.93;;
239;SDS011;104;53.590;10.004;2023-10-09T05:03:41;22.23;;;11.10;;
239;SDS011;104;53.590;10.004;2023-10-09T05:06:09;16.30;;;11.20;;
239;SDS011;104;53.590;10.004;2023-10-09T05:08:54;17.57;;;11.13;;
239;SDS011;104;53.590;10.004;2023-10-09T05:11:32;15.87;;;10.40;;
239;SDS011;104;53.590;10.004;2023-10-09T05:14:18;16.90;;;10.83;;
239;SDS011;104;53.590;10.004;2023-10-09T05:16:52;20.30;;;11.20;;
239;SDS011;104;53.590;10.004;2023-10-09T05:19:26;18.43;;;10.90;;
239;SDS011;104;53.590;10.004;2023-10-09T05:22:07;24.10;;;11.47;;
239;SDS011;104;53.590;10.004;2023-10-09T05:24:33;16.67;;;11.47;;
239;SDS011;104;53.590;10.004;2023-10-09T05:27:09;23.83;;;11.20;;
239;SDS011;104;53.590;10.004;2023-10-09T05:29:50;21.73;;;11.60;;
239;SDS011;104;53.590;10.004;2023-10-09T05:32:38;21.10;;;11.90;;
239;SDS011;104;53.590;10.004;2023-10-09T05:35:13;23.63;;;12.30;;
239;SDS011;104;53.590;10.004;2023-10-09T05:37:41;22.67;;;12.50;;
239;SDS011;104;53.590;10.004;2023-10-09T05:40:11;24.13;;;11.90;;
239;SDS011;104;53.590;10.004;2023-10-09T05:42:52;19.57;;;12.10;;
239;SDS011;104;53.590;10.004;2023-10-09T05:45:26;23.03;;;13.00;;
239;SDS011;104;53.590;10.004;2023-10-09T05:48:30;27.27;;;13.37;;
239;SDS011;104;53.590;10.004;2023-10-09T05:51:19;18.37;;;12.70;;
239;SDS011;104;53.590;10.004;2023-10-09T05:54:01;24.00;;;13.00;;
239;SDS011;104;53.590;10.004;2023-10-09T05:56:49;38.87;;;14.33;;
239;SDS011;104;53.590;10.004;2023-10-09T05:59:34;33.40;;;12.30;;
239;SDS011;104;53.590;10.004;2023-10-09T06:02:20;27.70;;;12.53;;
239;SDS011;104;53.590;10.004;2023-10-09T06:05:07;26.20;;;11.23;;
239;SDS011;104;53.590;10.004;2023-10-09T06:08:05;27.23;;;12.67;;
239;SDS011;104;53.590;10.004;2023-10-09T06:10:33;24.40;;;12.63;;
239;SDS011;104;53.590;10.004;2023-10-09T06:13:05;22.10;;;12.63;;
239;SDS011;104;53.590;10.004;2023-10-09T06:15:48;23.50;;;13.30;;
239;SDS011;104;53.590;10.004;2023-10-09T06:18:35;26.40;;;14.43;;
239;SDS011;104;53.590;10.004;2023-10-09T09:40:27;25.93;;;8.23;;
239;SDS011;104;53.590;10.004;2023-10-09T09:42:56;25.80;;;8.80;;
239;SDS011;104;53.590;10.004;2023-10-09T09:45:31;29.80;;;8.57;;
239;SDS011;104;53.590;10.004;2023-10-09T09:47:59;27.73;;;8.73;;
239;SDS011;104;53.590;10.004;2023-10-09T09:50:31;24.07;;;7.90;;
239;SDS011;104;53.590;10.004;2023-10-09T09:53:08;29.00;;;8.60;;
239;SDS011;104;53.590;10.004;2023-10-09T09:55:41;28.57;;;8.70;;
239;SDS011;104;53.590;10.004;2023-10-09T09:58:17;38.63;;;8.53;;
239;SDS011;104;53.590;10.004;2023-10-09T10:00:45;27.17;;;7.97;;
239;SDS011;104;53.590;10.004;2023-10-09T10:03:18;31.30;;;8.63;;
239;SDS011;104;53.590;10.004;2023-10-09T10:05:46;29.07;;;8.97;;
239;SDS011;104;53.590;10.004;2023-10-09T10:08:15;40.37;;;8.40;;
239;SDS011;104;53.590;10.004;2023-10-09T10:10:46;31.30;;;8.13;;
239;SDS011;104;53.590;10.004;2023-10-09T10:13:17;35.30;;;9.37;;
239;SDS011;104;53.590;10.004;2023-10-09T10:15:58;24.90;;;8.80;;
239;SDS011;104;53.590;10.004;2023-10-09T10:18:30;30.97;;;9.13;;
239;SDS011;104;53.590;10.004;2023-10-09T10:23:58;26.77;;;7.83;;
239;SDS011;104;53.590;10.004;2023-10-09T10:26:41;26.30;;;7.70;;
239;SDS011;104;53.590;10.004;2023-10-09T10:29:13;31.47;;;8.00;;
239;SDS011;104;53.590;10.004;2023-10-09T10:31:54;27.90;;;8.77;;
239;SDS011;104;53.590;10.004;2023-10-09T10:34:24;22.90;;;7.93;;
239;SDS011;104;53.590;10.004;2023-10-09T10:36:52;26.17;;;8.00;;
239;SDS011;104;53.590;10.004;2023-10-09T10:39:26;27.13;;;8.20;;
239;SDS011;104;53.590;10.004;2023-10-09T10:42:09;26.47;;;8.23;;
239;SDS011;104;53.590;10.004;2023-10-09T10:44:56;31.70;;;7.60;;
239;SDS011;104;53.590;10.004;2023-10-09T10:47:26;27.33;;;9.77;;
239;SDS011;104;53.590;10.004;2023-10-09T10:49:59;35.07;;;10.60;;
239;SDS011;104;53.590;10.004;2023-10-09T10:52:49;33.20;;;9.10;;
239;SDS011;104;53.590;10.004;2023-10-09T10:55:22;19.00;;;8.10;;
239;SDS011;104;53.590;10.004;2023-10-09T10:58:18;30.80;;;8.33;;
239;SDS011;104;53.590;10.004;2023-10-09T11:00:53;40.97;;;10.20;;
239;SDS011;104;53.590;10.004;2023-10-09T11:03:37;33.90;;;9.90;;
239;SDS011;104;53.590;10.004;2023-10-09T11:06:24;26.93;;;10.67;;
239;SDS011;104;53.590;10.004;2023-10-09T11:09:00;32.63;;;9.57;;
239;SDS011;104;53.590;10.004;2023-10-09T11:11:35;31.20;;;9.03;;
239;SDS011;104;53.590;10.004;2023-10-09T11:14:13;45.10;;;9.97;;
239;SDS011;104;53.590;10.004;2023-10-09T11:16:40;30.53;;;9.00;;
239;SDS011;104;53.590;10.004;2023-10-09T11:19:09;36.03;;;9.77;;
239;SDS011;104;53.590;10.004;2023-10-09T11:21:48;42.57;;;9.10;;
239;SDS011;104;53.590;10.004;2023-10-09T11:24:23;51.13;;;9.97;;
239;SDS011;104;53.590;10.004;2023-10-09T11:26:50;40.20;;;11.10;;
239;SDS011;104;53.590;10.004;2023-10-09T11:29:22;30.87;;;12.90;;
239;SDS011;104;53.590;10.004;2023-10-09T11:31:58;34.83;;;13.23;;
239;SDS011;104;53.590;10.004;2023-10-09T11:34:26;47.73;;;12.93;;
239;SDS011;104;53.590;10.004;2023-10-09T11:36:57;25.47;;;11.77;;
239;SDS011;104;53.590;10.004;2023-10-09T11:39:25;33.00;;;11.77;;
239;SDS011;104;53.590;10.004;2023-10-09T11:41:59;49.47;;;12.47;;
239;SDS011;104;53.590;10.004;2023-10-09T11:44:40;25.80;;;10.90;;
239;SDS011;104;53.590;10.004;2023-10-09T11:47:10;29.20;;;10.60;;
239;SDS011;104;53.590;10.004;2023-10-09T11:49:50;34.73;;;10.60;;
239;SDS011;104;53.590;10.004;2023-10-09T11:52:30;29.77;;;12.70;;
239;SDS011;104;53.590;10.004;2023-10-09T11:55:04;25.63;;;9.33;;
239;SDS011;104;53.590;10.004;2023-10-09T11:57:32;28.33;;;9.23;;
239;SDS011;104;53.590;10.004;2023-10-09T12:00:02;33.03;;;9.60;;
239;SDS011;104;53.590;10.004;2023-10-09T12:02:54;35.83;;;10.10;;
239;SDS011;104;53.590;10.004;2023-10-09T12:05:21;23.17;;;8.40;;
239;SDS011;104;53.590;10.004;2023-10-09T12:07:52;46.70;;;15.13;;
239;SDS011;104;53.590;10.004;2023-10-09T12:10:22;29.57;;;8.00;;
239;SDS011;104;53.590;10.004;2023-10-09T12:12:51;35.73;;;8.23;;
239;SDS011;104;53.590;10.004;2023-10-09T12:15:19;39.40;;;9.00;;
239;SDS011;104;53.590;10.004;2023-10-09T12:17:47;36.70;;;9.53;;
239;SDS011;104;53.590;10.004;2023-10-09T12:20:15;39.83;;;8.70;;
239;SDS011;104;53.590;10.004;2023-10-09T12:22:55;43.80;;;8.83;;
239;SDS011;104;53.590;10.004;2023-10-09T12:25:22;31.07;;;8.20;;
239;SDS011;104;53.590;10.004;2023-10-09T12:27:50;32.97;;;8.50;;
239;SDS011;104;53.590;10.004;2023-10-09T12:30:21;70.07;;;11.30;;
239;SDS011;104;53.590;10.004;2023-10-09T12:32:52;34.17;;;10.13;;
239;SDS011;104;53.590;10.004;2023-10-09T12:35:20;39.00;;;10.50;;
239;SDS011;104;53.590;10.004;2023-10-09T12:37:49;45.73;;;10.60;;
239;SDS011;104;53.590;10.004;2023-10-09T12:40:17;38.17;;;13.30;;
239;SDS011;104;53.590;10.004;2023-10-09T12:42:49;89.77;;;33.53;;
239;SDS011;104;53.590;10.004;2023-10-09T12:45:17;49.10;;;13.10;;
239;SDS011;104;53.590;10.004;2023-10-09T12:47:52;45.53;;;12.47;;
239;SDS011;104;53.590;10.004;2023-10-09T12:50:24;43.50;;;11.03;;
239;SDS011;104;53.590;10.004;2023-10-09T12:52:57;30.40;;;7.40;;
239;SDS011;104;53.590;10.004;2023-10-09T12:55:27;39.00;;;7.43;;
239;SDS011;104;53.590;10.004;2023-10-09T12:58:00;30.83;;;8.33;;
239;SDS011;104;53.590;10.004;2023-10-09T13:00:32;34.80;;;9.93;;
239;SDS011;104;53.590;10.004;2023-10-09T13:03:04;35.33;;;10.30;;
239;SDS011;104;53.590;10.004;2023-10-09T13:05:41;37.03;;;8.70;;
239;SDS011;104;53.590;10.004;2023-10-09T13:08:17;34.20;;;8.10;;
239;SDS011;104;53.590;10.004;2023-10-09T13:10:46;37.13;;;8.40;;
239;SDS011;104;53.590;10.004;2023-10-09T13:15:50;31.27;;;7.70;;
239;SDS011;104;53.590;10.004;2023-10-09T13:18:20;38.43;;;9.70;;
239;SDS011;104;53.590;10.004;2023-10-09T13:20:48;33.20;;;10.43;;
239;SDS011;104;53.590;10.004;2023-10-09T13:23:16;29.83;;;8.23;;
239;SDS011;104;53.590;10.004;2023-10-09T13:25:43;37.20;;;8.57;;
239;SDS011;104;53.590;10.004;2023-10-09T13:28:10;36.57;;;8.40;;
239;SDS011;104;53.590;10.004;2023-10-09T13:30:45;34.80;;;8.03;;
239;SDS011;104;53.590;10.004;2023-10-09T13:33:15;39.80;;;9.60;;
239;SDS011;104;53.590;10.004;2023-10-09T13:35:48;53.00;;;12.93;;
239;SDS011;104;53.590;10.004;2023-10-09T13:38:16;32.67;;;10.63;;
239;SDS011;104;53.590;10.004;2023-10-09T13:40:43;39.20;;;9.30;;
239;SDS011;104;53.590;10.004;2023-10-09T13:43:13;46.20;;;9.33;;
239;SDS011;104;53.590;10.004;2023-10-09T13:45:41;39.60;;;10.80;;
239;SDS011;104;53.590;10.004;2023-10-09T13:48:14;35.80;;;9.40;;
239;SDS011;104;53.590;10.004;2023-10-09T13:50:46;37.53;;;10.17;;
239;SDS011;104;53.590;10.004;2023-10-09T13:53:14;44.73;;;9.47;;
239;SDS011;104;53.590;10.004;2023-10-09T13:55:42;28.97;;;8.10;;
239;SDS011;104;53.590;10.004;2023-10-09T13:58:10;26.40;;;7.53;;
239;SDS011;104;53.590;10.004;2023-10-09T14:00:39;24.17;;;7.30;;
239;SDS011;104;53.590;10.004;2023-10-09T14:03:08;30.20;;;7.17;;
239;SDS011;104;53.590;10.004;2023-10-09T14:05:39;35.23;;;7.00;;
239;SDS011;104;53.590;10.004;2023-10-09T14:08:19;37.53;;;7.20;;
239;SDS011;104;53.590;10.004;2023-10-09T14:10:51;26.07;;;7.63;;
239;SDS011;104;53.590;10.004;2023-10-09T14:13:19;31.27;;;7.10;;
239;SDS011;104;53.590;10.004;2023-10-09T14:15:53;33.53;;;8.10;;
239;SDS011;104;53.590;10.004;2023-10-09T14:18:21;42.20;;;8.00;;
239;SDS011;104;53.590;10.004;2023-10-09T14:20:49;38.07;;;7.63;;
239;SDS011;104;53.590;10.004;2023-10-09T14:23:22;36.40;;;7.60;;
239;SDS011;104;53.590;10.004;2023-10-09T14:25:57;41.80;;;6.60;;
239;SDS011;104;53.590;10.004;2023-10-09T14:28:26;48.10;;;6.87;;
239;SDS011;104;53.590;10.004;2023-10-09T14:30:54;31.60;;;7.70;;
239;SDS011;104;53.590;10.004;2023-10-09T14:33:24;34.23;;;6.47;;
239;SDS011;104;53.590;10.004;2023-10-09T14:35:54;37.23;;;7.00;;
239;SDS011;104;53.590;10.004;2023-10-09T14:38:24;26.93;;;6.33;;
239;SDS011;104;53.590;10.004;2023-10-09T14:40:57;41.10;;;7.47;;
239;SDS011;104;53.590;10.004;2023-10-09T14:43:25;34.23;;;6.63;;
239;SDS011;104;53.590;10.004;2023-10-09T14:45:58;23.53;;;6.03;;
239;SDS011;104;53.590;10.004;2023-10-09T14:48:26;22.37;;;6.70;;
239;SDS011;104;53.590;10.004;2023-10-09T14:50:54;36.40;;;6.43;;
239;SDS011;104;53.590;10.004;2023-10-09T14:53:33;35.63;;;6.47;;
239;SDS011;104;53.590;10.004;2023-10-09T14:56:01;34.10;;;6.50;;
239;SDS011;104;53.590;10.004;2023-10-09T14:58:34;33.63;;;7.30;;
239;SDS011;104;53.590;10.004;2023-10-09T15:01:07;26.63;;;5.80;;
239;SDS011;104;53.590;10.004;2023-10-09T15:03:40;30.70;;;6.57;;
239;SDS011;104;53.590;10.004;2023-10-09T15:06:08;38.37;;;6.40;;
239;SDS011;104;53.590;10.004;2023-10-09T15:08:37;24.97;;;5.97;;
239;SDS011;104;53.590;10.004;2023-10-09T15:11:05;31.67;;;5.90;;
239;SDS011;104;53.590;10.004;2023-10-09T15:13:32;32.67;;;5.83;;
239;SDS011;104;53.590;10.004;2023-10-09T15:16:00;27.70;;;6.17;;
239;SDS011;104;53.590;10.004;2023-10-09T15:18:28;40.43;;;6.43;;
239;SDS011;104;53.590;10.004;2023-10-09T15:20:58;26.77;;;5.60;;
239;SDS011;104;53.590;10.004;2023-10-09T15:23:26;34.83;;;7.00;;
239;SDS011;104;53.590;10.004;2023-10-09T15:25:55;38.53;;;7.30;;
239;SDS011;104;53.590;10.004;2023-10-09T15:28:22;34.37;;;6.40;;
239;SDS011;104;53.590;10.004;2023-10-09T15:47:34;26.37;;;6.17;;
239;SDS011;104;53.590;10.004;2023-10-09T15:50:02;26.03;;;5.57;;
239;SDS011;104;53.590;10.004;2023-10-09T15:52:33;32.73;;;6.23;;
239;SDS011;104;53.590;10.004;2023-10-09T15:55:03;28.50;;;6.57;;
239;SDS011;104;53.590;10.004;2023-10-09T15:57:38;25.73;;;6.20;;
239;SDS011;104;53.590;10.004;2023-10-09T16:00:07;27.73;;;6.90;;
239;SDS011;104;53.590;10.004;2023-10-09T16:02:40;28.37;;;6.10;;
239;SDS011;104;53.590;10.004;2023-10-09T16:05:09;29.40;;;7.17;;
239;SDS011;104;53.590;10.004;2023-10-09T16:07:37;26.40;;;8.03;;
239;SDS011;104;53.590;10.004;2023-10-09T16:10:05;18.73;;;6.70;;
239;SDS011;104;53.590;10.004;2023-10-09T16:12:33;33.27;;;8.40;;
239;SDS011;104;53.590;10.004;2023-10-09T16:15:01;29.83;;;6.60;;
239;SDS011;104;53.590;10.004;2023-10-09T16:17:30;30.80;;;6.40;;
239;SDS011;104;53.590;10.004;2023-10-09T16:19:59;31.20;;;7.80;;
239;SDS011;104;53.590;10.004;2023-10-09T16:22:27;30.47;;;7.37;;
239;SDS011;104;53.590;10.004;2023-10-09T16:24:54;27.10;;;7.00;;
239;SDS011;104;53.590;10.004;2023-10-09T16:27:22;37.17;;;7.03;;
239;SDS011;104;53.590;10.004;2023-10-09T16:29:50;37.53;;;6.60;;
239;SDS011;104;53.590;10.004;2023-10-09T16:32:17;28.23;;;7.03;;
239;SDS011;104;53.590;10.004;2023-10-09T16:34:47;36.07;;;8.07;;
239;SDS011;104;53.590;10.004;2023-10-09T16:37:17;37.63;;;7.77;;
239;SDS011;104;53.590;10.004;2023-10-09T16:39:47;39.53;;;8.07;;
239;SDS011;104;53.590;10.004;2023-10-09T16:42:17;25.07;;;7.20;;
239;SDS011;104;53.590;10.004;2023-10-09T16:44:53;31.03;;;6.87;;
239;SDS011;104;53.590;10.004;2023-10-09T16:47:21;26.73;;;7.13;;
239;SDS011;104;53.590;10.004;2023-10-09T16:49:48;31.53;;;7.90;;
239;SDS011;104;53.590;10.004;2023-10-09T16:52:17;31.07;;;6.47;;
239;SDS011;104;53.590;10.004;2023-10-09T16:54:45;30.03;;;7.27;;
239;SDS011;104;53.590;10.004;2023-10-09T16:57:12;38.67;;;7.97;;
239;SDS011;104;53.590;10.004;2023-10-09T16:59:40;37.93;;;8.00;;
239;SDS011;104;53.590;10.004;2023-10-09T17:02:09;23.17;;;7.20;;
239;SDS011;104;53.590;10.004;2023-10-09T17:04:37;26.43;;;7.33;;
239;SDS011;104;53.590;10.004;2023-10-09T17:07:07;26.07;;;8.20;;
239;SDS011;104;53.590;10.004;2023-10-09T17:09:41;41.73;;;7.50;;
239;SDS011;104;53.590;10.004;2023-10-09T17:12:12;28.33;;;7.83;;
239;SDS011;104;53.590;10.004;2023-10-09T17:14:42;28.17;;;7.13;;
239;SDS011;104;53.590;10.004;2023-10-09T17:17:10;35.93;;;9.50;;
239;SDS011;104;53.590;10.004;2023-10-09T17:19:37;35.93;;;8.17;;
239;SDS011;104;53.590;10.004;2023-10-09T17:22:06;28.50;;;8.80;;
239;SDS011;104;53.590;10.004;2023-10-09T17:24:36;39.70;;;8.50;;
239;SDS011;104;53.590;10.004;2023-10-09T17:27:06;33.40;;;7.87;;
239;SDS011;104;53.590;10.004;2023-10-09T17:29:34;26.83;;;8.83;;
239;SDS011;104;53.590;10.004;2023-10-09T17:32:03;37.67;;;8.50;;
239;SDS011;104;53.590;10.004;2023-10-09T17:34:31;20.27;;;8.00;;
239;SDS011;104;53.590;10.004;2023-10-09T17:36:59;27.10;;;8.40;;
239;SDS011;104;53.590;10.004;2023-10-09T17:39:26;30.10;;;8.47;;
239;SDS011;104;53.590;10.004;2023-10-09T17:41:54;24.23;;;7.73;;
239;SDS011;104;53.590;10.004;2023-10-09T17:44:23;40.40;;;8.80;;
239;SDS011;104;53.590;10.004;2023-10-09T17:46:50;29.17;;;8.23;;
239;SDS011;104;53.590;10.004;2023-10-09T17:57:06;42.00;;;9.40;;
239;SDS011;104;53.590;10.004;2023-10-09T17:59:36;31.63;;;9.07;;
239;SDS011;104;53.590;10.004;2023-10-09T18:02:05;28.00;;;8.67;;
239;SDS011;104;53.590;10.004;2023-10-09T18:04:32;39.20;;;8.33;;
239;SDS011;104;53.590;10.004;2023-10-09T18:07:01;27.47;;;8.73;;
239;SDS011;104;53.590;10.004;2023-10-09T18:09:29;20.97;;;9.33;;
239;SDS011;104;53.590;10.004;2023-10-09T18:11:58;36.77;;;9.13;;
239;SDS011;104;53.590;10.004;2023-10-09T18:14:27;24.17;;;8.53;;
239;SDS011;104;53.590;10.004;2023-10-09T18:16:58;23.23;;;8.50;;
239;SDS011;104;53.590;10.004;2023-10-09T18:19:27;34.00;;;8.90;;
239;SDS011;104;53.590;10.004;2023-10-09T18:21:55;35.33;;;8.73;;
239;SDS011;104;53.590;10.004;2023-10-09T18:24:25;29.23;;;8.73;;
239;SDS011;104;53.590;10.004;2023-10-09T20:03:15;33.13;;;9.60;;
239;SDS011;104;53.590;10.004;2023-10-09T20:05:45;32.73;;;9.53;;
239;SDS011;104;53.590;10.004;2023-10-09T20:08:12;32.10;;;10.00;;
239;SDS011;104;53.590;10.004;2023-10-09T20:10:40;43.53;;;9.43;;
239;SDS011;104;53.590;10.004;2023-10-09T20:13:07;25.67;;;9.60;;
239;SDS011;104;53.590;10.004;2023-10-09T20:15:35;22.27;;;9.13;;
239;SDS011;104;53.590;10.004;2023-10-09T20:18:06;31.77;;;9.53;;
239;SDS011;104;53.590;10.004;2023-10-09T20:20:37;32.77;;;9.30;;
239;SDS011;104;53.590;10.004;2023-10-09T20:23:04;34.47;;;9.13;;
239;SDS011;104;53.590;10.004;2023-10-09T20:25:32;27.53;;;9.33;;
239;SDS011;104;53.590;10.004;2023-10-09T20:27:59;31.30;;;10.20;;
239;SDS011;104;53.590;10.004;2023-10-09T20:30:26;30.17;;;10.23;;
239;SDS011;104;53.590;10.004;2023-10-09T20:32:54;27.97;;;10.47;;
239;SDS011;104;53.590;10.004;2023-10-09T20:35:22;31.03;;;12.47;;
239;SDS011;104;53.590;10.004;2023-10-09T20:37:53;33.27;;;10.97;;
239;SDS011;104;53.590;10.004;2023-10-09T20:40:21;37.80;;;11.30;;
239;SDS011;104;53.590;10.004;2023-10-09T20:42:49;41.03;;;12.20;;
239;SDS011;104;53.590;10.004;2023-10-09T20:45:17;48.20;;;11.10;;
239;SDS011;104;53.590;10.004;2023-10-09T20:47:47;31.40;;;12.10;;
239;SDS011;104;53.590;10.004;2023-10-09T20:50:20;33.53;;;12.40;;
239;SDS011;104;53.590;10.004;2023-10-09T20:52:47;30.27;;;12.53;;
239;SDS011;104;53.590;10.004;2023-10-09T20:55:18;36.90;;;12.60;;
239;SDS011;104;53.590;10.004;2023-10-09T20:57:48;44.67;;;12.07;;
239;SDS011;104;53.590;10.004;2023-10-09T21:00:16;37.23;;;11.63;;
239;SDS011;104;53.590;10.004;2023-10-09T21:02:47;28.00;;;12.53;;
239;SDS011;104;53.590;10.004;2023-10-09T21:05:17;41.50;;;12.70;;
239;SDS011;104;53.590;10.004;2023-10-09T21:07:44;35.17;;;14.33;;
239;SDS011;104;53.590;10.004;2023-10-09T21:10:12;46.70;;;14.83;;
239;SDS011;104;53.590;10.004;2023-10-09T21:12:41;32.00;;;14.13;;
239;SDS011;104;53.590;10.004;2023-10-09T21:15:09;37.67;;;15.27;;
239;SDS011;104;53.590;10.004;2023-10-09T21:17:39;31.77;;;11.90;;
239;SDS011;104;53.590;10.004;2023-10-09T21:20:06;42.77;;;12.30;;
239;SDS011;104;53.590;10.004;2023-10-09T21:22:35;36.50;;;12.07;;
239;SDS011;104;53.590;10.004;2023-10-09T21:25:04;31.23;;;11.27;;
239;SDS011;104;53.590;10.004;2023-10-09T21:27:32;36.87;;;11.83;;
239;SDS011;104;53.590;10.004;2023-10-09T21:30:01;34.53;;;11.90;;
239;SDS011;104;53.590;10.004;2023-10-09T21:32:29;43.70;;;12.17;;
239;SDS011;104;53.590;10.004;2023-10-09T21:35:04;34.10;;;11.20;;
239;SDS011;104;53.590;10.004;2023-10-09T21:37:32;34.37;;;11.20;;
239;SDS011;104;53.590;10.004;2023-10-09T21:39:59;29.67;;;10.30;;
239;SDS011;104;53.590;10.004;2023-10-09T21:42:29;33.70;;;11.17;;
239;SDS011;104;53.590;10.004;2023-10-09T21:44:57;31.20;;;12.27;;
239;SDS011;104;53.590;10.004;2023-10-09T21:47:25;36.07;;;12.40;;
239;SDS011;104;53.590;10.004;2023-10-09T21:49:53;34.73;;;11.57;;
239;SDS011;104;53.590;10.004;2023-10-09T21:52:20;34.40;;;11.47;;
239;SDS011;104;53.590;10.004;2023-10-09T21:54:47;32.50;;;11.43;;
239;SDS011;104;53.590;10.004;2023-10-09T21:57:15;33.47;;;11.70;;
239;SDS011;104;53.590;10.004;2023-10-09T21:59:43;31.10;;;11.87;;
239;SDS011;104;53.590;10.004;2023-10-09T22:02:11;40.77;;;12.13;;
239;SDS011;104;53.590;10.004;2023-10-09T22:04:41;34.80;;;11.43;;
239;SDS011;104;53.590;10.004;2023-10-09T22:07:08;30.97;;;11.10;;
239;SDS011;104;53.590;10.004;2023-10-09T22:09:35;32.90;;;11.27;;
239;SDS011;104;53.590;10.004;2023-10-09T22:12:02;34.33;;;10.90;;
239;SDS011;104;53.590;10.004;2023-10-09T22:14:30;33.90;;;11.00;;
239;SDS011;104;53.590;10.004;2023-10-09T22:16:58;30.70;;;10.90;;
239;SDS011;104;53.590;10.004;2023-10-09T22:19:25;28.87;;;11.10;;
239;SDS011;104;53.590;10.004;2023-10-09T22:22:01;31.47;;;10.20;;
239;SDS011;104;53.590;10.004;2023-10-09T22:24:35;34.27;;;10.87;;
239;SDS011;104;53.590;10.004;2023-10-09T22:27:04;39.13;;;10.10;;
239;SDS011;104;53.590;10.004;2023-10-09T22:29:42;28.03;;;11.20;;
239;SDS011;104;53.590;10.004;2023-10-09T22:32:11;33.30;;;10.70;;
239;SDS011;104;53.590;10.004;2023-10-09T22:34:41;34.53;;;11.20;;
239;SDS011;104;53.590;10.004;2023-10-09T22:37:10;26.17;;;10.13;;
239;SDS011;104;53.590;10.004;2023-10-09T22:39:43;30.50;;;10.60;;
239;SDS011;104;53.590;10.004;2023-10-09T22:42:11;31.70;;;11.13;;
239;SDS011;104;53.590;10.004;2023-10-09T22:44:42;31.37;;;11.10;;
239;SDS011;104;53.590;10.004;2023-10-09T22:47:09;40.60;;;11.20;;
239;SDS011;104;53.590;10.004;2023-10-09T22:49:40;36.77;;;10.03;;
239;SDS011;104;53.590;10.004;2023-10-09T22:52:18;47.10;;;12.20;;
239;SDS011;104;53.590;10.004;2023-10-09T22:54:49;31.20;;;10.07;;
239;SDS011;104;53.590;10.004;2023-10-09T22:57:18;31.93;;;10.50;;
239;SDS011;104;53.590;10.004;2023-10-09T22:59:47;26.97;;;10.20;;
239;SDS011;104;53.590;10.004;2023-10-09T23:02:16;34.67;;;10.83;;
239;SDS011;104;53.590;10.004;2023-10-09T23:05:04;29.60;;;10.40;;
239;SDS011;104;53.590;10.004;2023-10-09T23:07:38;27.47;;;9.90;;
239;SDS011;104;53.590;10.004;2023-10-09T23:10:23;31.73;;;10.53;;
239;SDS011;104;53.590;10.004;2023-10-09T23:12:51;29.50;;;9.77;;
239;SDS011;104;53.590;10.004;2023-10-09T23:15:19;34.17;;;11.07;;
239;SDS011;104;53.590;10.004;2023-10-09T23:17:59;37.70;;;11.30;;
239;SDS011;104;53.590;10.004;2023-10-09T23:20:34;34.93;;;10.70;;
239;SDS011;104;53.590;10.004;2023-10-09T23:23:15;34.40;;;10.67;;
239;SDS011;104;53.590;10.004;2023-10-09T23:25:50;28.00;;;10.10;;
239;SDS011;104;53.590;10.004;2023-10-09T23:28:19;26.60;;;10.13;;
239;SDS011;104;53.590;10.004;2023-10-09T23:31:02;33.80;;;11.17;;
239;SDS011;104;53.590;10.004;2023-10-09T23:33:47;31.93;;;8.63;;
239;SDS011;104;53.590;10.004;2023-10-09T23:36:16;29.47;;;9.43;;
239;SDS011;104;53.590;10.004;2023-10-09T23:38:52;31.20;;;10.13;;
239;SDS011;104;53.590;10.004;2023-10-09T23:42:01;25.87;;;9.20;;
239;SDS011;104;53.590;10.004;2023-10-09T23:44:40;38.67;;;10.83;;
239;SDS011;104;53.590;10.004;2023-10-09T23:47:07;26.00;;;9.60;;
239;SDS011;104;53.590;10.004;2023-10-09T23:49:34;25.87;;;9.73;;
239;SDS011;104;53.590;10.004;2023-10-09T23:52:03;24.30;;;10.53;;
239;SDS011;104;53.590;10.004;2023-10-09T23:54:33;30.57;;;9.60;;
239;SDS011;104;53.590;10.004;2023-10-09T23:57:01;32.00;;;10.63;;
239;SDS011;104;53.590;10.004;2023-10-09T23:59:29;31.50;;;10.53;;
